createdAt,value
2023-05-15T00:00:07.514Z,13.59
2023-05-15T00:01:07.509Z,13.58
2023-05-15T00:02:07.516Z,13.56
2023-05-15T00:03:07.693Z,13.55
2023-05-15T00:04:07.460Z,13.55
2023-05-15T00:05:07.553Z,13.54
2023-05-15T00:06:07.438Z,13.52
2023-05-15T00:07:07.420Z,13.52
2023-05-15T00:08:07.455Z,13.54
2023-05-15T00:09:07.395Z,13.51
2023-05-15T00:10:07.403Z,13.51
2023-05-15T00:11:07.382Z,13.49
2023-05-15T00:12:07.369Z,13.47
2023-05-15T00:13:07.368Z,13.44
2023-05-15T00:14:07.372Z,13.40
2023-05-15T00:15:07.328Z,13.37
2023-05-15T00:16:07.340Z,13.36
2023-05-15T00:17:07.318Z,13.32
2023-05-15T00:18:07.368Z,13.25
2023-05-15T00:19:07.362Z,13.22
2023-05-15T00:20:07.279Z,13.18
2023-05-15T00:21:07.264Z,13.17
2023-05-15T00:22:07.246Z,13.18
2023-05-15T00:23:07.236Z,13.18
2023-05-15T00:24:07.257Z,13.18
2023-05-15T00:25:07.219Z,13.18
2023-05-15T00:26:13.252Z,13.15
2023-05-15T00:27:07.191Z,13.18
2023-05-15T00:28:07.184Z,13.15
2023-05-15T00:29:07.192Z,13.14
2023-05-15T00:30:07.161Z,13.14
2023-05-15T00:31:07.178Z,13.12
2023-05-15T00:32:07.186Z,13.11
2023-05-15T00:33:07.195Z,13.09
2023-05-15T00:34:07.138Z,13.11
2023-05-15T00:35:07.134Z,13.07
2023-05-15T00:36:07.118Z,13.07
2023-05-15T00:37:07.108Z,13.06
2023-05-15T00:38:07.092Z,13.04
2023-05-15T00:39:07.106Z,13.03
2023-05-15T00:40:07.107Z,13.03
2023-05-15T00:41:07.073Z,13.03
2023-05-15T00:42:07.037Z,13.02
2023-05-15T00:43:07.067Z,12.97
2023-05-15T00:44:07.043Z,12.99
2023-05-15T00:45:07.011Z,12.97
2023-05-15T00:46:07.012Z,12.96
2023-05-15T00:47:07.029Z,12.93
2023-05-15T00:48:06.998Z,12.95
2023-05-15T00:49:07.001Z,12.97
2023-05-15T00:50:06.976Z,12.97
2023-05-15T00:51:06.952Z,12.97
2023-05-15T00:52:06.937Z,12.97
2023-05-15T00:53:06.941Z,12.96
2023-05-15T00:54:06.962Z,12.96
2023-05-15T00:55:06.949Z,12.93
2023-05-15T00:56:06.877Z,12.92
2023-05-15T00:57:06.904Z,12.89
2023-05-15T00:58:06.867Z,12.89
2023-05-15T00:59:06.865Z,12.87
2023-05-15T01:00:06.862Z,12.85
2023-05-15T01:01:08.397Z,12.84
2023-05-15T01:02:06.872Z,12.85
2023-05-15T01:03:06.868Z,12.82
2023-05-15T01:04:06.825Z,12.81
2023-05-15T01:05:06.788Z,12.79
2023-05-15T01:06:06.817Z,12.78
2023-05-15T01:07:06.760Z,12.74
2023-05-15T01:08:06.752Z,12.71
2023-05-15T01:09:06.745Z,12.70
2023-05-15T01:10:06.727Z,12.67
2023-05-15T01:11:06.729Z,12.63
2023-05-15T01:12:06.725Z,12.59
2023-05-15T01:13:06.686Z,12.54
2023-05-15T01:14:06.740Z,12.51
2023-05-15T01:15:06.696Z,12.49
2023-05-15T01:16:06.657Z,12.49
2023-05-15T01:17:06.655Z,12.46
2023-05-15T01:18:06.685Z,12.45
2023-05-15T01:19:06.738Z,12.42
2023-05-15T01:20:06.700Z,12.42
2023-05-15T01:21:06.622Z,12.42
2023-05-15T01:22:06.584Z,12.41
2023-05-15T01:23:06.596Z,12.41
2023-05-15T01:24:06.616Z,12.41
2023-05-15T01:25:06.607Z,12.41
2023-05-15T01:26:06.579Z,12.39
2023-05-15T01:27:06.528Z,12.37
2023-05-15T01:28:06.524Z,12.37
2023-05-15T01:29:06.565Z,12.34
2023-05-15T01:30:06.533Z,12.33
2023-05-15T01:31:06.493Z,12.33
2023-05-15T01:32:06.579Z,12.34
2023-05-15T01:33:06.533Z,12.34
2023-05-15T01:34:06.477Z,12.34
2023-05-15T01:35:06.447Z,12.37
2023-05-15T01:36:06.438Z,12.33
2023-05-15T01:37:06.417Z,12.31
2023-05-15T01:38:06.485Z,12.30
2023-05-15T01:39:06.405Z,12.30
2023-05-15T01:40:06.425Z,12.27
2023-05-15T01:41:06.368Z,12.24
2023-05-15T01:42:06.362Z,12.23
2023-05-15T01:43:06.355Z,12.21
2023-05-15T01:44:06.357Z,12.20
2023-05-15T01:45:06.354Z,12.20
2023-05-15T01:46:06.351Z,12.15
2023-05-15T01:47:06.302Z,12.13
2023-05-15T01:48:06.336Z,12.12
2023-05-15T01:49:06.327Z,12.12
2023-05-15T01:50:06.810Z,12.09
2023-05-15T01:51:06.264Z,12.09
2023-05-15T01:52:06.230Z,12.04
2023-05-15T01:53:06.243Z,12.02
2023-05-15T01:54:06.263Z,12.01
2023-05-15T01:55:06.230Z,11.97
2023-05-15T01:56:06.217Z,11.96
2023-05-15T01:57:06.225Z,11.96
2023-05-15T01:58:06.187Z,11.93
2023-05-15T01:59:06.192Z,11.90
2023-05-15T02:00:06.164Z,11.89
2023-05-15T02:01:06.166Z,11.87
2023-05-15T02:02:06.318Z,11.86
2023-05-15T02:03:06.194Z,11.87
2023-05-15T02:04:06.196Z,11.85
2023-05-15T02:05:06.102Z,11.83
2023-05-15T02:06:06.107Z,11.80
2023-05-15T02:07:06.089Z,11.80
2023-05-15T02:08:06.925Z,11.80
2023-05-15T02:09:06.076Z,11.80
2023-05-15T02:10:06.068Z,11.78
2023-05-15T02:11:06.041Z,11.80
2023-05-15T02:12:06.025Z,11.83
2023-05-15T02:13:06.025Z,11.83
2023-05-15T02:14:06.049Z,11.85
2023-05-15T02:15:06.009Z,11.85
2023-05-15T02:16:06.049Z,11.86
2023-05-15T02:17:05.996Z,11.86
2023-05-15T02:18:06.761Z,11.85
2023-05-15T02:19:06.021Z,11.83
2023-05-15T02:20:05.922Z,11.82
2023-05-15T02:21:05.926Z,11.83
2023-05-15T02:22:05.908Z,11.83
2023-05-15T02:23:05.915Z,11.80
2023-05-15T02:24:05.896Z,11.80
2023-05-15T02:25:05.899Z,11.80
2023-05-15T02:26:05.879Z,11.78
2023-05-15T02:27:05.867Z,11.80
2023-05-15T02:28:05.877Z,11.82
2023-05-15T02:29:05.884Z,11.80
2023-05-15T02:30:05.858Z,11.82
2023-05-15T02:31:05.811Z,11.80
2023-05-15T02:32:05.879Z,11.82
2023-05-15T02:33:05.859Z,11.82
2023-05-15T02:34:05.814Z,11.82
2023-05-15T02:35:05.817Z,11.80
2023-05-15T02:36:05.779Z,11.78
2023-05-15T02:37:05.753Z,11.78
2023-05-15T02:38:05.744Z,11.80
2023-05-15T02:39:05.748Z,11.75
2023-05-15T02:40:05.723Z,11.75
2023-05-15T02:41:05.699Z,11.75
2023-05-15T02:42:05.685Z,11.74
2023-05-15T02:43:05.684Z,11.71
2023-05-15T02:44:05.677Z,11.70
2023-05-15T02:45:05.669Z,11.65
2023-05-15T02:46:05.674Z,11.64
2023-05-15T02:47:05.667Z,11.61
2023-05-15T02:48:05.685Z,11.59
2023-05-15T02:49:05.633Z,11.56
2023-05-15T02:50:05.642Z,11.56
2023-05-15T02:51:05.594Z,11.53
2023-05-15T02:52:05.595Z,11.50
2023-05-15T02:53:05.592Z,11.47
2023-05-15T02:54:05.640Z,11.46
2023-05-15T02:55:05.545Z,11.44
2023-05-15T02:56:05.534Z,11.46
2023-05-15T02:57:05.579Z,11.44
2023-05-15T02:58:05.550Z,11.43
2023-05-15T02:59:05.515Z,11.43
2023-05-15T03:00:05.539Z,11.43
2023-05-15T03:01:05.522Z,11.43
2023-05-15T03:02:05.518Z,11.43
2023-05-15T03:03:05.453Z,11.41
2023-05-15T03:04:05.513Z,11.39
2023-05-15T03:05:06.447Z,11.39
2023-05-15T03:06:05.450Z,11.41
2023-05-15T03:07:05.431Z,11.41
2023-05-15T03:08:05.426Z,11.39
2023-05-15T03:09:05.399Z,11.41
2023-05-15T03:10:06.215Z,11.41
2023-05-15T03:11:05.523Z,11.41
2023-05-15T03:12:05.384Z,11.43
2023-05-15T03:13:05.366Z,11.43
2023-05-15T03:14:05.337Z,11.38
2023-05-15T03:15:05.362Z,11.38
2023-05-15T03:16:05.360Z,11.36
2023-05-15T03:17:05.364Z,11.36
2023-05-15T03:18:05.321Z,11.35
2023-05-15T03:19:05.364Z,11.32
2023-05-15T03:20:05.305Z,11.31
2023-05-15T03:21:05.300Z,11.29
2023-05-15T03:22:05.929Z,11.28
2023-05-15T03:23:05.242Z,11.28
2023-05-15T03:24:05.226Z,11.29
2023-05-15T03:25:05.257Z,11.28
2023-05-15T03:26:05.212Z,11.25
2023-05-15T03:27:05.239Z,11.27
2023-05-15T03:28:05.219Z,11.27
2023-05-15T03:29:05.182Z,11.27
2023-05-15T03:30:05.169Z,11.25
2023-05-15T03:31:05.250Z,11.27
2023-05-15T03:32:05.156Z,11.25
2023-05-15T03:33:05.169Z,11.25
2023-05-15T03:34:05.149Z,11.27
2023-05-15T03:35:05.144Z,11.28
2023-05-15T03:36:05.116Z,11.28
2023-05-15T03:37:05.113Z,11.29
2023-05-15T03:38:05.085Z,11.29
2023-05-15T03:39:05.105Z,11.29
2023-05-15T03:40:05.120Z,11.31
2023-05-15T03:41:05.072Z,11.29
2023-05-15T03:42:05.038Z,11.27
2023-05-15T03:43:05.025Z,11.27
2023-05-15T03:44:05.019Z,11.24
2023-05-15T03:45:05.070Z,11.24
2023-05-15T03:46:05.068Z,11.21
2023-05-15T03:47:05.008Z,11.19
2023-05-15T03:48:05.055Z,11.17
2023-05-15T03:49:04.980Z,11.14
2023-05-15T03:50:04.996Z,11.13
2023-05-15T03:51:04.957Z,11.13
2023-05-15T03:52:04.988Z,11.13
2023-05-15T03:53:04.938Z,11.11
2023-05-15T03:54:04.923Z,11.10
2023-05-15T03:55:04.935Z,11.10
2023-05-15T03:56:04.910Z,11.06
2023-05-15T03:57:04.860Z,11.06
2023-05-15T03:58:04.880Z,11.06
2023-05-15T03:59:04.866Z,11.06
2023-05-15T04:00:04.868Z,11.03
2023-05-15T04:01:04.858Z,11.02
2023-05-15T04:02:05.795Z,11.03
2023-05-15T04:03:04.916Z,11.02
2023-05-15T04:04:04.818Z,11.02
2023-05-15T04:05:04.892Z,11.03
2023-05-15T04:06:04.754Z,11.06
2023-05-15T04:07:04.761Z,11.09
2023-05-15T04:08:04.777Z,11.09
2023-05-15T04:09:04.745Z,11.07
2023-05-15T04:10:04.781Z,11.09
2023-05-15T04:11:04.704Z,11.07
2023-05-15T04:12:04.755Z,11.11
2023-05-15T04:13:04.694Z,11.11
2023-05-15T04:14:04.695Z,11.14
2023-05-15T04:15:04.736Z,11.14
2023-05-15T04:16:04.762Z,11.16
2023-05-15T04:17:04.679Z,11.17
2023-05-15T04:18:04.724Z,11.17
2023-05-15T04:19:04.671Z,11.20
2023-05-15T04:20:04.745Z,11.21
2023-05-15T04:21:04.639Z,11.24
2023-05-15T04:22:04.616Z,11.27
2023-05-15T04:23:04.589Z,11.27
2023-05-15T04:24:04.573Z,11.29
2023-05-15T04:25:04.604Z,11.32
2023-05-15T04:26:04.581Z,11.34
2023-05-15T04:27:04.660Z,11.36
2023-05-15T04:28:04.524Z,11.39
2023-05-15T04:29:04.992Z,11.41
2023-05-15T04:30:04.590Z,11.43
2023-05-15T04:31:04.506Z,11.44
2023-05-15T04:32:04.529Z,11.44
2023-05-15T04:33:04.551Z,11.46
2023-05-15T04:34:04.522Z,11.47
2023-05-15T04:35:04.504Z,11.49
2023-05-15T04:36:04.455Z,11.53
2023-05-15T04:37:04.450Z,11.54
2023-05-15T04:38:04.466Z,11.56
2023-05-15T04:39:04.426Z,11.59
2023-05-15T04:40:04.461Z,11.62
2023-05-15T04:41:04.387Z,11.62
2023-05-15T04:42:04.377Z,11.64
2023-05-15T04:43:04.411Z,11.67
2023-05-15T04:44:04.356Z,11.68
2023-05-15T04:45:04.381Z,11.70
2023-05-15T04:46:04.447Z,11.72
2023-05-15T04:47:04.327Z,11.72
2023-05-15T04:48:04.916Z,11.77
2023-05-15T04:49:04.308Z,11.78
2023-05-15T04:50:04.360Z,11.80
2023-05-15T04:51:04.301Z,11.83
2023-05-15T04:52:04.293Z,11.86
2023-05-15T04:53:04.258Z,11.87
2023-05-15T04:54:04.256Z,11.89
2023-05-15T04:55:04.258Z,11.93
2023-05-15T04:56:04.230Z,11.96
2023-05-15T04:57:04.220Z,11.97
2023-05-15T04:58:04.193Z,11.99
2023-05-15T04:59:04.174Z,12.04
2023-05-15T05:00:04.193Z,12.05
2023-05-15T05:01:04.556Z,12.06
2023-05-15T05:02:04.215Z,12.09
2023-05-15T05:03:04.163Z,12.11
2023-05-15T05:04:04.236Z,12.12
2023-05-15T05:05:04.152Z,12.15
2023-05-15T05:06:04.104Z,12.16
2023-05-15T05:07:04.126Z,12.20
2023-05-15T05:08:04.082Z,12.24
2023-05-15T05:09:04.108Z,12.26
2023-05-15T05:10:04.079Z,12.27
2023-05-15T05:11:04.057Z,12.30
2023-05-15T05:12:04.049Z,12.30
2023-05-15T05:13:04.062Z,12.34
2023-05-15T05:14:04.014Z,12.38
2023-05-15T05:15:04.030Z,12.39
2023-05-15T05:16:04.043Z,12.45
2023-05-15T05:17:04.014Z,12.46
2023-05-15T05:18:04.031Z,12.51
2023-05-15T05:19:04.026Z,12.54
2023-05-15T05:20:04.000Z,12.57
2023-05-15T05:21:03.958Z,12.62
2023-05-15T05:22:03.951Z,12.66
2023-05-15T05:23:03.938Z,12.67
2023-05-15T05:24:04.264Z,12.70
2023-05-15T05:25:03.979Z,12.75
2023-05-15T05:26:05.374Z,12.79
2023-05-15T05:27:03.869Z,12.82
2023-05-15T05:28:03.864Z,12.85
2023-05-15T05:29:03.884Z,12.88
2023-05-15T05:30:03.915Z,12.93
2023-05-15T05:31:03.874Z,12.95
2023-05-15T05:32:03.816Z,13.00
2023-05-15T05:33:03.846Z,13.03
2023-05-15T05:34:03.810Z,13.07
2023-05-15T05:35:03.824Z,13.12
2023-05-15T05:36:03.812Z,13.14
2023-05-15T05:37:03.769Z,13.18
2023-05-15T05:38:03.783Z,13.22
2023-05-15T05:39:03.749Z,13.24
2023-05-15T05:40:03.754Z,13.25
2023-05-15T05:41:03.714Z,13.32
2023-05-15T05:42:03.726Z,13.36
2023-05-15T05:43:03.711Z,13.40
2023-05-15T05:44:03.693Z,13.44
2023-05-15T05:45:03.705Z,13.51
2023-05-15T05:46:03.648Z,13.55
2023-05-15T05:47:03.729Z,13.59
2023-05-15T05:48:03.696Z,13.65
2023-05-15T05:49:03.653Z,13.70
2023-05-15T05:50:03.651Z,13.74
2023-05-15T05:51:03.704Z,13.77
2023-05-15T05:52:03.598Z,13.81
2023-05-15T05:53:03.602Z,13.87
2023-05-15T05:54:03.565Z,13.91
2023-05-15T05:55:03.615Z,13.98
2023-05-15T05:56:03.535Z,14.01
2023-05-15T05:57:03.544Z,14.09
2023-05-15T05:58:06.506Z,14.14
2023-05-15T05:59:03.539Z,14.19
2023-05-15T06:00:03.513Z,14.27
2023-05-15T06:01:03.487Z,14.34
2023-05-15T06:02:03.535Z,14.38
2023-05-15T06:03:03.499Z,14.44
2023-05-15T06:04:03.537Z,14.50
2023-05-15T06:05:03.469Z,14.53
2023-05-15T06:06:03.446Z,14.60
2023-05-15T06:07:03.419Z,14.64
2023-05-15T06:08:03.429Z,14.68
2023-05-15T06:09:03.408Z,14.71
2023-05-15T06:10:03.422Z,14.74
2023-05-15T06:11:03.371Z,14.75
2023-05-15T06:12:03.358Z,14.80
2023-05-15T06:13:03.354Z,14.84
2023-05-15T06:14:03.343Z,14.87
2023-05-15T06:15:03.371Z,14.93
2023-05-15T06:16:03.324Z,14.95
2023-05-15T06:17:03.400Z,15.02
2023-05-15T06:18:03.322Z,15.06
2023-05-15T06:19:03.360Z,15.13
2023-05-15T06:20:03.315Z,15.17
2023-05-15T06:21:03.283Z,15.21
2023-05-15T06:22:03.276Z,15.24
2023-05-15T06:23:03.276Z,15.27
2023-05-15T06:24:03.250Z,15.33
2023-05-15T06:25:03.247Z,15.38
2023-05-15T06:26:09.773Z,15.41
2023-05-15T06:27:03.191Z,15.49
2023-05-15T06:28:03.179Z,15.54
2023-05-15T06:29:03.191Z,15.60
2023-05-15T06:30:03.169Z,15.64
2023-05-15T06:31:03.268Z,15.70
2023-05-15T06:32:03.142Z,15.75
2023-05-15T06:33:03.178Z,15.79
2023-05-15T06:34:03.114Z,15.84
2023-05-15T06:35:03.200Z,15.88
2023-05-15T06:36:03.097Z,15.93
2023-05-15T06:37:03.101Z,15.99
2023-05-15T06:38:03.076Z,16.01
2023-05-15T06:39:03.057Z,16.04
2023-05-15T06:40:03.065Z,16.04
2023-05-15T06:41:03.039Z,16.04
2023-05-15T06:42:03.036Z,16.07
2023-05-15T06:43:03.030Z,16.11
2023-05-15T06:44:03.029Z,16.16
2023-05-15T06:45:03.038Z,16.25
2023-05-15T06:46:03.065Z,16.27
2023-05-15T06:48:16.499Z,16.38
2023-05-15T06:49:16.263Z,16.42
2023-05-15T06:50:15.529Z,16.48
2023-05-15T06:51:15.502Z,16.53
2023-05-15T06:52:15.497Z,16.55
2023-05-15T06:53:15.482Z,16.60
2023-05-15T06:54:15.522Z,16.62
2023-05-15T06:55:15.480Z,16.68
2023-05-15T06:56:15.442Z,16.70
2023-05-15T06:57:15.440Z,16.74
2023-05-15T06:58:15.425Z,16.78
2023-05-15T06:59:15.415Z,16.83
2023-05-15T07:00:15.424Z,16.86
2023-05-15T07:01:15.412Z,16.92
2023-05-15T07:02:15.503Z,16.88
2023-05-15T07:03:15.366Z,16.86
2023-05-15T07:04:18.247Z,16.89
2023-05-15T07:05:15.467Z,16.90
2023-05-15T07:06:15.340Z,16.95
2023-05-15T07:07:15.333Z,16.99
2023-05-15T07:08:15.329Z,17.06
2023-05-15T07:09:15.312Z,17.11
2023-05-15T07:10:15.319Z,17.13
2023-05-15T07:11:15.283Z,17.13
2023-05-15T07:12:15.299Z,17.13
2023-05-15T07:13:15.272Z,17.14
2023-05-15T07:14:15.251Z,17.18
2023-05-15T07:15:15.254Z,17.25
2023-05-15T07:16:15.251Z,17.32
2023-05-15T07:17:15.260Z,17.36
2023-05-15T07:18:15.245Z,17.40
2023-05-15T07:19:15.237Z,17.44
2023-05-15T07:20:15.225Z,17.47
2023-05-15T07:21:15.170Z,17.50
2023-05-15T07:22:15.171Z,17.54
2023-05-15T07:23:15.168Z,17.66
2023-05-15T07:24:15.163Z,17.74
2023-05-15T07:25:16.880Z,17.85
2023-05-15T07:26:23.771Z,17.91
2023-05-15T07:27:15.100Z,18.00
2023-05-15T07:28:15.093Z,18.02
2023-05-15T07:29:15.087Z,17.97
2023-05-15T07:30:15.096Z,17.95
2023-05-15T07:31:15.104Z,17.99
2023-05-15T07:32:15.068Z,18.00
2023-05-15T07:33:15.047Z,18.00
2023-05-15T07:34:15.040Z,18.03
2023-05-15T07:35:15.041Z,18.09
2023-05-15T07:36:15.035Z,18.12
2023-05-15T07:37:16.911Z,18.15
2023-05-15T07:38:15.021Z,18.18
2023-05-15T07:39:15.015Z,18.19
2023-05-15T07:40:14.974Z,18.17
2023-05-15T07:41:14.946Z,18.19
2023-05-15T07:42:14.949Z,18.24
2023-05-15T07:43:14.922Z,18.31
2023-05-15T07:44:14.914Z,18.36
2023-05-15T07:45:14.966Z,18.42
2023-05-15T07:46:14.951Z,18.47
2023-05-15T07:47:14.891Z,18.52
2023-05-15T07:48:14.872Z,18.52
2023-05-15T07:49:14.879Z,18.54
2023-05-15T07:50:14.865Z,18.58
2023-05-15T07:51:14.841Z,18.65
2023-05-15T07:52:14.844Z,18.70
2023-05-15T07:53:14.814Z,18.72
2023-05-15T07:54:14.805Z,18.74
2023-05-15T07:55:14.847Z,18.80
2023-05-15T07:56:14.789Z,18.77
2023-05-15T07:57:14.781Z,18.82
2023-05-15T07:58:14.774Z,18.91
2023-05-15T07:59:14.829Z,18.99
2023-05-15T08:00:14.768Z,19.06
2023-05-15T08:01:14.733Z,19.11
2023-05-15T08:02:14.802Z,19.17
2023-05-15T08:03:14.939Z,19.23
2023-05-15T08:04:14.725Z,19.28
2023-05-15T08:05:14.706Z,19.32
2023-05-15T08:06:14.672Z,19.33
2023-05-15T08:07:14.660Z,19.32
2023-05-15T08:08:14.663Z,19.35
2023-05-15T08:09:14.649Z,19.32
2023-05-15T08:10:14.663Z,19.36
2023-05-15T08:11:14.640Z,19.40
2023-05-15T08:12:14.607Z,19.46
2023-05-15T08:13:14.604Z,19.42
2023-05-15T08:14:14.610Z,19.43
2023-05-15T08:15:14.601Z,19.47
2023-05-15T08:16:14.611Z,19.53
2023-05-15T08:17:14.557Z,19.58
2023-05-15T08:18:14.537Z,19.66
2023-05-15T08:19:14.586Z,19.72
2023-05-15T08:20:14.532Z,19.83
2023-05-15T08:21:14.518Z,19.90
2023-05-15T08:22:14.529Z,19.94
2023-05-15T08:23:14.489Z,19.98
2023-05-15T08:24:14.479Z,20.00
2023-05-15T08:25:14.490Z,20.06
2023-05-15T08:26:14.453Z,20.10
2023-05-15T08:27:14.452Z,20.10
2023-05-15T08:28:14.439Z,20.08
2023-05-15T08:29:14.433Z,20.06
2023-05-15T08:30:14.443Z,20.05
2023-05-15T08:31:14.436Z,20.08
2023-05-15T08:32:14.390Z,20.13
2023-05-15T08:33:14.535Z,20.21
2023-05-15T08:34:14.377Z,20.27
2023-05-15T08:35:14.377Z,20.30
2023-05-15T08:36:14.437Z,20.27
2023-05-15T08:37:14.344Z,20.24
2023-05-15T08:38:14.334Z,20.27
2023-05-15T08:39:14.312Z,20.31
2023-05-15T08:40:14.324Z,20.34
2023-05-15T08:41:14.301Z,20.35
2023-05-15T08:42:14.280Z,20.35
2023-05-15T08:43:14.276Z,20.41
2023-05-15T08:44:14.265Z,20.43
2023-05-15T08:45:14.269Z,20.49
2023-05-15T08:46:14.282Z,20.54
2023-05-15T08:47:14.231Z,20.58
2023-05-15T08:48:14.335Z,20.62
2023-05-15T08:49:14.294Z,20.69
2023-05-15T08:50:14.270Z,20.77
2023-05-15T08:51:14.181Z,20.83
2023-05-15T08:52:14.180Z,20.84
2023-05-15T08:53:14.161Z,20.87
2023-05-15T08:54:14.216Z,20.91
2023-05-15T08:55:14.147Z,20.91
2023-05-15T08:56:14.171Z,20.96
2023-05-15T08:57:14.127Z,20.99
2023-05-15T08:58:14.177Z,20.99
2023-05-15T08:59:14.102Z,20.98
2023-05-15T09:00:14.118Z,21.02
2023-05-15T09:01:14.117Z,21.05
2023-05-15T09:02:14.141Z,21.09
2023-05-15T09:03:14.125Z,21.08
2023-05-15T09:04:14.131Z,21.14
2023-05-15T09:05:14.030Z,21.21
2023-05-15T09:06:14.072Z,21.19
2023-05-15T09:07:14.021Z,21.20
2023-05-15T09:08:14.078Z,21.20
2023-05-15T09:09:14.005Z,21.19
2023-05-15T09:10:14.122Z,21.17
2023-05-15T09:11:13.990Z,21.19
2023-05-15T09:12:13.953Z,21.23
2023-05-15T09:13:13.972Z,21.29
2023-05-15T09:14:13.936Z,21.35
2023-05-15T09:15:13.932Z,21.34
2023-05-15T09:16:13.994Z,21.30
2023-05-15T09:17:13.905Z,21.35
2023-05-15T09:18:13.941Z,21.38
2023-05-15T09:19:13.922Z,21.35
2023-05-15T09:20:13.876Z,21.39
2023-05-15T09:21:13.889Z,21.48
2023-05-15T09:22:18.810Z,21.48
2023-05-15T09:23:13.840Z,21.51
2023-05-15T09:24:13.832Z,21.57
2023-05-15T09:25:13.820Z,21.56
2023-05-15T09:26:13.826Z,21.56
2023-05-15T09:27:13.804Z,21.59
2023-05-15T09:28:13.788Z,21.60
2023-05-15T09:29:14.379Z,21.63
2023-05-15T09:30:13.759Z,21.69
2023-05-15T09:31:13.781Z,21.71
2023-05-15T09:32:13.873Z,21.71
2023-05-15T09:33:13.755Z,21.74
2023-05-15T09:34:13.719Z,21.82
2023-05-15T09:35:13.712Z,21.91
2023-05-15T09:36:13.715Z,21.97
2023-05-15T09:37:13.706Z,22.01
2023-05-15T09:38:13.682Z,22.04
2023-05-15T09:39:13.672Z,22.06
2023-05-15T09:40:13.671Z,22.02
2023-05-15T09:41:13.674Z,21.99
2023-05-15T09:42:13.641Z,21.99
2023-05-15T09:43:13.640Z,22.04
2023-05-15T09:44:13.616Z,22.07
2023-05-15T09:45:13.607Z,22.09
2023-05-15T09:46:13.674Z,22.12
2023-05-15T09:47:13.684Z,22.13
2023-05-15T09:48:13.657Z,22.19
2023-05-15T09:49:13.582Z,22.19
2023-05-15T09:50:13.549Z,22.23
2023-05-15T09:51:13.564Z,22.13
2023-05-15T09:52:13.534Z,22.04
2023-05-15T09:53:13.522Z,22.02
2023-05-15T09:54:13.498Z,22.07
2023-05-15T09:55:13.510Z,22.13
2023-05-15T09:56:13.500Z,22.13
2023-05-15T09:57:13.478Z,22.14
2023-05-15T09:58:13.463Z,22.20
2023-05-15T09:59:13.456Z,22.25
2023-05-15T10:00:13.445Z,22.31
2023-05-15T10:01:13.515Z,22.35
2023-05-15T10:02:13.420Z,22.31
2023-05-15T10:03:13.445Z,22.27
2023-05-15T10:04:15.882Z,22.13
2023-05-15T10:05:13.424Z,22.10
2023-05-15T10:06:13.403Z,22.16
2023-05-15T10:07:13.371Z,22.27
2023-05-15T10:08:13.347Z,22.38
2023-05-15T10:09:13.354Z,22.43
2023-05-15T10:10:13.356Z,22.47
2023-05-15T10:11:13.337Z,22.54
2023-05-15T10:12:13.309Z,22.57
2023-05-15T10:13:13.311Z,22.64
2023-05-15T10:14:13.322Z,22.68
2023-05-15T10:15:13.284Z,22.72
2023-05-15T10:16:13.334Z,22.77
2023-05-15T10:17:13.257Z,22.69
2023-05-15T10:18:13.320Z,22.74
2023-05-15T10:19:13.510Z,22.80
2023-05-15T10:20:13.236Z,22.92
2023-05-15T10:21:13.232Z,23.01
2023-05-15T10:22:13.202Z,23.09
2023-05-15T10:23:13.189Z,23.15
2023-05-15T10:24:13.182Z,23.23
2023-05-15T10:25:13.212Z,23.27
2023-05-15T10:26:13.201Z,23.22
2023-05-15T10:27:13.172Z,23.17
2023-05-15T10:28:13.878Z,23.19
2023-05-15T10:29:13.157Z,23.19
2023-05-15T10:30:13.141Z,23.20
2023-05-15T10:31:13.206Z,23.23
2023-05-15T10:32:13.092Z,23.19
2023-05-15T10:33:13.212Z,23.17
2023-05-15T10:34:13.076Z,23.22
2023-05-15T10:35:13.073Z,23.31
2023-05-15T10:36:13.081Z,23.40
2023-05-15T10:37:13.046Z,23.47
2023-05-15T10:38:13.038Z,23.50
2023-05-15T10:39:13.025Z,23.60
2023-05-15T10:40:13.041Z,23.67
2023-05-15T10:41:17.641Z,23.76
2023-05-15T10:42:12.994Z,23.82
2023-05-15T10:43:13.008Z,23.80
2023-05-15T10:44:12.968Z,23.80
2023-05-15T10:45:12.961Z,23.85
2023-05-15T10:46:12.967Z,23.87
2023-05-15T10:47:12.995Z,23.89
2023-05-15T10:48:12.964Z,23.85
2023-05-15T10:49:12.916Z,23.85
2023-05-15T10:50:12.931Z,23.85
2023-05-15T10:51:12.913Z,23.87
2023-05-15T10:52:12.923Z,23.94
2023-05-15T10:53:12.880Z,24.00
2023-05-15T10:54:12.864Z,24.08
2023-05-15T10:55:12.872Z,24.07
2023-05-15T10:56:12.882Z,24.05
2023-05-15T10:57:12.828Z,24.01
2023-05-15T10:58:12.826Z,23.95
2023-05-15T10:59:12.835Z,23.83
2023-05-15T11:00:12.788Z,23.79
2023-05-15T11:01:12.838Z,23.83
2023-05-15T11:02:12.785Z,23.97
2023-05-15T11:03:12.785Z,24.10
2023-05-15T11:04:12.795Z,24.20
2023-05-15T11:05:12.754Z,24.26
2023-05-15T11:06:12.834Z,24.27
2023-05-15T11:07:12.723Z,24.37
2023-05-15T11:08:12.701Z,24.45
2023-05-15T11:09:12.696Z,24.52
2023-05-15T11:10:12.685Z,24.56
2023-05-15T11:11:12.687Z,24.57
2023-05-15T11:12:12.663Z,24.57
2023-05-15T11:13:12.678Z,24.57
2023-05-15T11:14:12.638Z,24.60
2023-05-15T11:15:12.634Z,24.60
2023-05-15T11:16:14.139Z,24.60
2023-05-15T11:17:12.779Z,24.56
2023-05-15T11:18:12.748Z,24.52
2023-05-15T11:19:12.660Z,24.53
2023-05-15T11:20:12.571Z,24.56
2023-05-15T11:21:12.593Z,24.61
2023-05-15T11:22:12.610Z,24.68
2023-05-15T11:23:12.543Z,24.67
2023-05-15T11:24:12.539Z,24.69
2023-05-15T11:25:12.552Z,24.73
2023-05-15T11:26:12.528Z,24.71
2023-05-15T11:27:12.511Z,24.71
2023-05-15T11:28:12.505Z,24.71
2023-05-15T11:29:12.486Z,24.64
2023-05-15T11:30:12.474Z,24.73
2023-05-15T11:31:12.509Z,24.79
2023-05-15T11:32:12.452Z,24.83
2023-05-15T11:33:12.458Z,24.87
2023-05-15T11:34:12.428Z,24.90
2023-05-15T11:35:12.426Z,25.01
2023-05-15T11:36:12.413Z,25.05
2023-05-15T11:37:12.398Z,25.00
2023-05-15T11:38:12.382Z,24.98
2023-05-15T11:39:12.375Z,24.98
2023-05-15T11:40:12.419Z,24.98
2023-05-15T11:41:12.364Z,24.97
2023-05-15T11:42:12.352Z,25.01
2023-05-15T11:43:12.337Z,25.07
2023-05-15T11:44:12.319Z,25.16
2023-05-15T11:45:12.331Z,25.27
2023-05-15T11:46:12.378Z,25.30
2023-05-15T11:47:12.292Z,25.28
2023-05-15T11:48:12.292Z,25.37
2023-05-15T11:49:12.273Z,25.38
2023-05-15T11:50:12.345Z,25.25
2023-05-15T11:51:12.260Z,25.30
2023-05-15T11:52:12.236Z,25.25
2023-05-15T11:53:12.237Z,25.32
2023-05-15T11:54:12.227Z,25.42
2023-05-15T11:55:12.213Z,25.56
2023-05-15T11:56:12.207Z,25.75
2023-05-15T11:57:12.185Z,25.86
2023-05-15T11:58:12.178Z,26.01
2023-05-15T11:59:12.168Z,26.12
2023-05-15T12:00:12.160Z,26.22
2023-05-15T12:01:12.175Z,26.28
2023-05-15T12:02:12.128Z,26.25
2023-05-15T12:03:12.230Z,26.35
2023-05-15T12:04:12.321Z,26.44
2023-05-15T12:05:12.137Z,26.61
2023-05-15T12:06:12.132Z,26.73
2023-05-15T12:07:12.091Z,26.77
2023-05-15T12:08:12.069Z,26.86
2023-05-15T12:09:12.069Z,26.77
2023-05-15T12:10:12.054Z,26.72
2023-05-15T12:11:12.044Z,26.74
2023-05-15T12:12:12.019Z,26.61
2023-05-15T12:13:12.011Z,26.27
2023-05-15T12:14:12.000Z,26.08
2023-05-15T12:15:11.992Z,25.93
2023-05-15T12:16:12.024Z,25.82
2023-05-15T12:17:11.974Z,25.67
2023-05-15T12:18:11.963Z,25.44
2023-05-15T12:19:12.069Z,25.20
2023-05-15T12:20:11.939Z,25.02
2023-05-15T12:21:11.944Z,24.94
2023-05-15T12:22:11.927Z,24.87
2023-05-15T12:23:11.909Z,24.83
2023-05-15T12:24:11.923Z,24.75
2023-05-15T12:25:11.882Z,24.59
2023-05-15T12:26:11.892Z,24.47
2023-05-15T12:27:11.879Z,24.34
2023-05-15T12:28:11.858Z,24.27
2023-05-15T12:29:11.845Z,24.17
2023-05-15T12:30:11.833Z,24.13
2023-05-15T12:31:11.841Z,24.10
2023-05-15T12:32:11.856Z,24.02
2023-05-15T12:33:11.936Z,23.97
2023-05-15T12:34:11.788Z,23.90
2023-05-15T12:35:11.782Z,23.83
2023-05-15T12:36:11.811Z,23.79
2023-05-15T12:37:11.757Z,23.75
2023-05-15T12:38:11.745Z,23.70
2023-05-15T12:39:11.738Z,23.68
2023-05-15T12:40:11.808Z,23.53
2023-05-15T12:41:11.733Z,23.52
2023-05-15T12:42:11.745Z,23.52
2023-05-15T12:43:11.705Z,23.53
2023-05-15T12:44:11.688Z,23.61
2023-05-15T12:45:11.679Z,23.71
2023-05-15T12:46:11.710Z,23.80
2023-05-15T12:47:11.649Z,23.80
2023-05-15T12:48:11.707Z,23.82
2023-05-15T12:49:11.722Z,23.80
2023-05-15T12:50:11.612Z,23.79
2023-05-15T12:51:11.636Z,23.71
2023-05-15T12:52:11.600Z,23.62
2023-05-15T12:53:11.593Z,23.58